sensor_id;sensor_type;location;lat;lon;timestamp;P1;durP1;ratioP1;P2;durP2;ratioP2
70165;SDS011;57541;47.408;18.822;2023-04-25T00:00:06;4.03;;;1.73;;
70165;SDS011;57541;47.408;18.822;2023-04-25T00:00:38;4.50;;;2.17;;
70165;SDS011;57541;47.408;18.822;2023-04-25T00:01:09;5.07;;;1.95;;
70165;SDS011;57541;47.408;18.822;2023-04-25T00:01:44;4.35;;;1.98;;
70165;SDS011;57541;47.408;18.822;2023-04-25T00:02:15;4.25;;;1.90;;
70165;SDS011;57541;47.408;18.822;2023-04-25T00:02:47;4.50;;;1.83;;
70165;SDS011;57541;47.408;18.822;2023-04-25T00:03:20;4.47;;;1.98;;
70165;SDS011;57541;47.408;18.822;2023-04-25T00:03:52;5.15;;;2.03;;
70165;SDS011;57541;47.408;18.822;2023-04-25T00:04:25;4.88;;;1.98;;
70165;SDS011;57541;47.408;18.822;2023-04-25T00:04:59;4.30;;;1.90;;
70165;SDS011;57541;47.408;18.822;2023-04-25T00:05:31;4.47;;;2.00;;
70165;SDS011;57541;47.408;18.822;2023-04-25T00:06:03;4.93;;;2.08;;
70165;SDS011;57541;47.408;18.822;2023-04-25T00:06:34;4.47;;;2.03;;
70165;SDS011;57541;47.408;18.822;2023-04-25T00:07:07;4.53;;;1.70;;
70165;SDS011;57541;47.408;18.822;2023-04-25T00:07:39;4.93;;;1.80;;
70165;SDS011;57541;47.408;18.822;2023-04-25T00:08:13;4.70;;;1.95;;
70165;SDS011;57541;47.408;18.822;2023-04-25T00:08:45;4.53;;;2.10;;
70165;SDS011;57541;47.408;18.822;2023-04-25T00:09:16;4.20;;;1.77;;
70165;SDS011;57541;47.408;18.822;2023-04-25T00:09:48;4.30;;;2.00;;
70165;SDS011;57541;47.408;18.822;2023-04-25T00:10:20;5.57;;;2.00;;
70165;SDS011;57541;47.408;18.822;2023-04-25T00:10:52;4.43;;;1.88;;
70165;SDS011;57541;47.408;18.822;2023-04-25T00:11:23;5.18;;;2.38;;
70165;SDS011;57541;47.408;18.822;2023-04-25T00:11:55;5.47;;;2.10;;
70165;SDS011;57541;47.408;18.822;2023-04-25T00:12:27;4.47;;;2.25;;
70165;SDS011;57541;47.408;18.822;2023-04-25T00:12:59;5.38;;;2.13;;
70165;SDS011;57541;47.408;18.822;2023-04-25T00:13:34;4.70;;;2.20;;
70165;SDS011;57541;47.408;18.822;2023-04-25T00:14:05;4.68;;;2.08;;
70165;SDS011;57541;47.408;18.822;2023-04-25T00:14:38;4.72;;;1.92;;
70165;SDS011;57541;47.408;18.822;2023-04-25T00:15:10;4.50;;;2.10;;
70165;SDS011;57541;47.408;18.822;2023-04-25T00:15:42;4.32;;;2.05;;
70165;SDS011;57541;47.408;18.822;2023-04-25T00:16:14;5.03;;;2.13;;
70165;SDS011;57541;47.408;18.822;2023-04-25T00:16:46;5.18;;;2.50;;
70165;SDS011;57541;47.408;18.822;2023-04-25T00:17:19;5.55;;;2.03;;
70165;SDS011;57541;47.408;18.822;2023-04-25T00:17:51;5.18;;;2.10;;
70165;SDS011;57541;47.408;18.822;2023-04-25T00:18:24;4.60;;;2.40;;
70165;SDS011;57541;47.408;18.822;2023-04-25T00:18:56;4.45;;;2.35;;
70165;SDS011;57541;47.408;18.822;2023-04-25T00:19:28;7.40;;;2.33;;
70165;SDS011;57541;47.408;18.822;2023-04-25T00:20:00;4.85;;;2.42;;
70165;SDS011;57541;47.408;18.822;2023-04-25T00:20:32;4.88;;;2.60;;
70165;SDS011;57541;47.408;18.822;2023-04-25T00:21:03;4.90;;;2.45;;
70165;SDS011;57541;47.408;18.822;2023-04-25T00:21:37;5.00;;;2.42;;
70165;SDS011;57541;47.408;18.822;2023-04-25T00:22:12;4.93;;;2.40;;
70165;SDS011;57541;47.408;18.822;2023-04-25T00:22:44;5.10;;;2.55;;
70165;SDS011;57541;47.408;18.822;2023-04-25T00:23:16;5.70;;;2.92;;
70165;SDS011;57541;47.408;18.822;2023-04-25T00:23:52;5.65;;;2.75;;
70165;SDS011;57541;47.408;18.822;2023-04-25T00:24:24;5.53;;;3.00;;
70165;SDS011;57541;47.408;18.822;2023-04-25T00:24:55;5.60;;;2.97;;
70165;SDS011;57541;47.408;18.822;2023-04-25T00:25:28;5.70;;;2.85;;
70165;SDS011;57541;47.408;18.822;2023-04-25T00:26:00;5.55;;;2.75;;
70165;SDS011;57541;47.408;18.822;2023-04-25T00:26:31;6.40;;;2.80;;
70165;SDS011;57541;47.408;18.822;2023-04-25T00:27:04;5.82;;;3.08;;
70165;SDS011;57541;47.408;18.822;2023-04-25T00:27:36;5.97;;;3.08;;
70165;SDS011;57541;47.408;18.822;2023-04-25T00:28:08;7.63;;;3.40;;
70165;SDS011;57541;47.408;18.822;2023-04-25T00:28:39;7.60;;;3.00;;
70165;SDS011;57541;47.408;18.822;2023-04-25T00:29:11;6.78;;;3.03;;
70165;SDS011;57541;47.408;18.822;2023-04-25T00:29:43;7.45;;;3.50;;
70165;SDS011;57541;47.408;18.822;2023-04-25T00:30:15;6.00;;;3.17;;
70165;SDS011;57541;47.408;18.822;2023-04-25T00:30:46;5.95;;;3.10;;
70165;SDS011;57541;47.408;18.822;2023-04-25T00:31:18;5.50;;;3.00;;
70165;SDS011;57541;47.408;18.822;2023-04-25T00:31:50;7.00;;;3.25;;
70165;SDS011;57541;47.408;18.822;2023-04-25T00:32:21;6.85;;;3.55;;
70165;SDS011;57541;47.408;18.822;2023-04-25T00:32:53;6.30;;;3.45;;
70165;SDS011;57541;47.408;18.822;2023-04-25T00:33:25;6.10;;;3.60;;
70165;SDS011;57541;47.408;18.822;2023-04-25T00:33:57;6.18;;;3.70;;
70165;SDS011;57541;47.408;18.822;2023-04-25T00:34:28;6.57;;;3.50;;
70165;SDS011;57541;47.408;18.822;2023-04-25T00:35:00;7.78;;;3.72;;
70165;SDS011;57541;47.408;18.822;2023-04-25T00:35:32;5.85;;;3.33;;
70165;SDS011;57541;47.408;18.822;2023-04-25T00:36:04;7.13;;;3.90;;
70165;SDS011;57541;47.408;18.822;2023-04-25T00:36:37;6.00;;;3.55;;
70165;SDS011;57541;47.408;18.822;2023-04-25T00:37:09;6.88;;;3.60;;
70165;SDS011;57541;47.408;18.822;2023-04-25T00:37:41;6.38;;;3.45;;
70165;SDS011;57541;47.408;18.822;2023-04-25T00:38:13;7.03;;;3.90;;
70165;SDS011;57541;47.408;18.822;2023-04-25T00:38:45;6.22;;;3.65;;
70165;SDS011;57541;47.408;18.822;2023-04-25T00:39:16;6.93;;;3.75;;
70165;SDS011;57541;47.408;18.822;2023-04-25T00:39:48;6.82;;;3.33;;
70165;SDS011;57541;47.408;18.822;2023-04-25T00:40:20;6.72;;;3.67;;
70165;SDS011;57541;47.408;18.822;2023-04-25T00:40:52;7.15;;;3.78;;
70165;SDS011;57541;47.408;18.822;2023-04-25T00:41:25;7.57;;;4.20;;
70165;SDS011;57541;47.408;18.822;2023-04-25T00:41:57;6.05;;;3.40;;
70165;SDS011;57541;47.408;18.822;2023-04-25T00:42:29;6.75;;;3.60;;
70165;SDS011;57541;47.408;18.822;2023-04-25T00:43:02;6.65;;;3.80;;
70165;SDS011;57541;47.408;18.822;2023-04-25T00:43:34;6.93;;;3.47;;
70165;SDS011;57541;47.408;18.822;2023-04-25T00:44:08;6.70;;;4.10;;
70165;SDS011;57541;47.408;18.822;2023-04-25T00:44:42;6.93;;;4.00;;
70165;SDS011;57541;47.408;18.822;2023-04-25T00:45:16;8.52;;;4.10;;
70165;SDS011;57541;47.408;18.822;2023-04-25T00:45:48;7.28;;;4.20;;
70165;SDS011;57541;47.408;18.822;2023-04-25T00:46:21;7.22;;;3.85;;
70165;SDS011;57541;47.408;18.822;2023-04-25T00:46:54;6.65;;;4.00;;
70165;SDS011;57541;47.408;18.822;2023-04-25T00:47:26;7.25;;;4.05;;
70165;SDS011;57541;47.408;18.822;2023-04-25T00:48:00;6.40;;;3.95;;
70165;SDS011;57541;47.408;18.822;2023-04-25T00:48:32;6.78;;;3.97;;
70165;SDS011;57541;47.408;18.822;2023-04-25T00:49:03;6.95;;;4.07;;
70165;SDS011;57541;47.408;18.822;2023-04-25T00:49:35;7.80;;;4.15;;
70165;SDS011;57541;47.408;18.822;2023-04-25T00:50:07;7.25;;;4.22;;
70165;SDS011;57541;47.408;18.822;2023-04-25T00:50:39;6.50;;;3.97;;
70165;SDS011;57541;47.408;18.822;2023-04-25T00:51:13;7.40;;;4.22;;
70165;SDS011;57541;47.408;18.822;2023-04-25T00:51:50;7.88;;;4.25;;
70165;SDS011;57541;47.408;18.822;2023-04-25T00:52:22;6.70;;;4.13;;
70165;SDS011;57541;47.408;18.822;2023-04-25T00:52:53;6.95;;;4.10;;
70165;SDS011;57541;47.408;18.822;2023-04-25T00:53:26;7.53;;;4.03;;
70165;SDS011;57541;47.408;18.822;2023-04-25T00:53:58;7.28;;;4.13;;
70165;SDS011;57541;47.408;18.822;2023-04-25T00:54:30;7.00;;;4.10;;
70165;SDS011;57541;47.408;18.822;2023-04-25T00:55:02;7.22;;;4.05;;
70165;SDS011;57541;47.408;18.822;2023-04-25T00:55:35;6.72;;;3.65;;
70165;SDS011;57541;47.408;18.822;2023-04-25T00:56:07;6.72;;;4.15;;
70165;SDS011;57541;47.408;18.822;2023-04-25T00:56:39;7.80;;;4.00;;
70165;SDS011;57541;47.408;18.822;2023-04-25T00:57:11;6.95;;;3.80;;
70165;SDS011;57541;47.408;18.822;2023-04-25T00:57:42;8.77;;;4.20;;
70165;SDS011;57541;47.408;18.822;2023-04-25T00:58:14;6.97;;;4.32;;
70165;SDS011;57541;47.408;18.822;2023-04-25T00:58:46;6.47;;;3.78;;
70165;SDS011;57541;47.408;18.822;2023-04-25T00:59:18;6.13;;;3.65;;
70165;SDS011;57541;47.408;18.822;2023-04-25T00:59:51;8.13;;;3.83;;
70165;SDS011;57541;47.408;18.822;2023-04-25T01:00:24;7.53;;;4.00;;
70165;SDS011;57541;47.408;18.822;2023-04-25T01:00:56;7.00;;;4.20;;
70165;SDS011;57541;47.408;18.822;2023-04-25T01:01:29;7.75;;;4.20;;
70165;SDS011;57541;47.408;18.822;2023-04-25T01:02:02;8.38;;;3.80;;
70165;SDS011;57541;47.408;18.822;2023-04-25T01:02:34;7.13;;;4.30;;
70165;SDS011;57541;47.408;18.822;2023-04-25T01:03:07;6.93;;;4.07;;
70165;SDS011;57541;47.408;18.822;2023-04-25T01:03:39;7.00;;;4.07;;
70165;SDS011;57541;47.408;18.822;2023-04-25T01:04:14;7.28;;;3.83;;
70165;SDS011;57541;47.408;18.822;2023-04-25T01:04:47;6.32;;;3.63;;
70165;SDS011;57541;47.408;18.822;2023-04-25T01:05:19;6.63;;;3.70;;
70165;SDS011;57541;47.408;18.822;2023-04-25T01:05:50;8.25;;;3.72;;
70165;SDS011;57541;47.408;18.822;2023-04-25T01:06:23;7.75;;;3.45;;
70165;SDS011;57541;47.408;18.822;2023-04-25T01:06:55;7.32;;;3.90;;
70165;SDS011;57541;47.408;18.822;2023-04-25T01:07:27;6.78;;;3.90;;
70165;SDS011;57541;47.408;18.822;2023-04-25T01:07:58;8.75;;;3.80;;
70165;SDS011;57541;47.408;18.822;2023-04-25T01:08:30;6.35;;;3.63;;
70165;SDS011;57541;47.408;18.822;2023-04-25T01:09:02;5.90;;;3.70;;
70165;SDS011;57541;47.408;18.822;2023-04-25T01:09:36;7.20;;;3.60;;
70165;SDS011;57541;47.408;18.822;2023-04-25T01:10:08;6.20;;;3.67;;
70165;SDS011;57541;47.408;18.822;2023-04-25T01:10:40;7.80;;;3.30;;
70165;SDS011;57541;47.408;18.822;2023-04-25T01:11:11;6.25;;;3.55;;
70165;SDS011;57541;47.408;18.822;2023-04-25T01:11:43;5.90;;;3.35;;
70165;SDS011;57541;47.408;18.822;2023-04-25T01:12:15;6.75;;;3.67;;
70165;SDS011;57541;47.408;18.822;2023-04-25T01:12:47;7.78;;;3.42;;
70165;SDS011;57541;47.408;18.822;2023-04-25T01:13:18;6.80;;;3.58;;
70165;SDS011;57541;47.408;18.822;2023-04-25T01:13:51;6.90;;;3.10;;
70165;SDS011;57541;47.408;18.822;2023-04-25T01:14:23;6.00;;;3.42;;
70165;SDS011;57541;47.408;18.822;2023-04-25T01:14:54;6.00;;;3.20;;
70165;SDS011;57541;47.408;18.822;2023-04-25T01:15:26;7.47;;;3.63;;
70165;SDS011;57541;47.408;18.822;2023-04-25T01:15:58;6.97;;;3.75;;
70165;SDS011;57541;47.408;18.822;2023-04-25T01:16:31;7.35;;;3.60;;
70165;SDS011;57541;47.408;18.822;2023-04-25T01:17:04;6.45;;;3.67;;
70165;SDS011;57541;47.408;18.822;2023-04-25T01:17:36;6.25;;;3.30;;
70165;SDS011;57541;47.408;18.822;2023-04-25T01:18:08;5.70;;;3.17;;
70165;SDS011;57541;47.408;18.822;2023-04-25T01:18:40;5.95;;;3.20;;
70165;SDS011;57541;47.408;18.822;2023-04-25T01:19:13;6.47;;;3.05;;
70165;SDS011;57541;47.408;18.822;2023-04-25T01:19:48;6.60;;;3.42;;
70165;SDS011;57541;47.408;18.822;2023-04-25T01:20:21;6.25;;;3.53;;
70165;SDS011;57541;47.408;18.822;2023-04-25T01:20:54;7.38;;;3.58;;
70165;SDS011;57541;47.408;18.822;2023-04-25T01:21:26;7.07;;;3.28;;
70165;SDS011;57541;47.408;18.822;2023-04-25T01:22:01;6.32;;;3.17;;
70165;SDS011;57541;47.408;18.822;2023-04-25T01:22:33;6.40;;;3.28;;
70165;SDS011;57541;47.408;18.822;2023-04-25T01:23:04;5.45;;;2.85;;
70165;SDS011;57541;47.408;18.822;2023-04-25T01:23:37;6.53;;;2.80;;
70165;SDS011;57541;47.408;18.822;2023-04-25T01:24:11;5.38;;;3.05;;
70165;SDS011;57541;47.408;18.822;2023-04-25T01:24:43;6.57;;;2.90;;
70165;SDS011;57541;47.408;18.822;2023-04-25T01:25:15;5.75;;;3.10;;
70165;SDS011;57541;47.408;18.822;2023-04-25T01:25:48;5.90;;;3.10;;
70165;SDS011;57541;47.408;18.822;2023-04-25T01:26:20;6.18;;;3.10;;
70165;SDS011;57541;47.408;18.822;2023-04-25T01:26:53;6.15;;;3.00;;
70165;SDS011;57541;47.408;18.822;2023-04-25T01:27:27;6.05;;;3.25;;
70165;SDS011;57541;47.408;18.822;2023-04-25T01:27:59;5.70;;;3.10;;
70165;SDS011;57541;47.408;18.822;2023-04-25T01:28:31;5.65;;;2.80;;
70165;SDS011;57541;47.408;18.822;2023-04-25T01:29:04;5.63;;;3.15;;
70165;SDS011;57541;47.408;18.822;2023-04-25T01:29:36;5.78;;;3.05;;
70165;SDS011;57541;47.408;18.822;2023-04-25T01:30:08;6.10;;;2.80;;
70165;SDS011;57541;47.408;18.822;2023-04-25T01:30:40;6.30;;;3.00;;
70165;SDS011;57541;47.408;18.822;2023-04-25T01:31:12;8.70;;;3.50;;
70165;SDS011;57541;47.408;18.822;2023-04-25T01:31:45;5.63;;;2.90;;
70165;SDS011;57541;47.408;18.822;2023-04-25T01:32:18;5.47;;;2.90;;
70165;SDS011;57541;47.408;18.822;2023-04-25T01:32:49;6.72;;;2.90;;
70165;SDS011;57541;47.408;18.822;2023-04-25T01:33:22;5.72;;;2.72;;
70165;SDS011;57541;47.408;18.822;2023-04-25T01:33:53;5.72;;;2.70;;
70165;SDS011;57541;47.408;18.822;2023-04-25T01:34:25;5.40;;;2.88;;
70165;SDS011;57541;47.408;18.822;2023-04-25T01:34:57;5.97;;;2.78;;
70165;SDS011;57541;47.408;18.822;2023-04-25T01:35:29;5.72;;;2.90;;
70165;SDS011;57541;47.408;18.822;2023-04-25T01:36:01;5.88;;;2.80;;
70165;SDS011;57541;47.408;18.822;2023-04-25T01:36:32;6.75;;;3.22;;
70165;SDS011;57541;47.408;18.822;2023-04-25T01:37:05;6.00;;;2.88;;
70165;SDS011;57541;47.408;18.822;2023-04-25T01:37:37;9.55;;;3.58;;
70165;SDS011;57541;47.408;18.822;2023-04-25T01:38:12;6.55;;;2.90;;
70165;SDS011;57541;47.408;18.822;2023-04-25T01:38:44;7.10;;;3.17;;
70165;SDS011;57541;47.408;18.822;2023-04-25T01:39:18;5.68;;;2.95;;
70165;SDS011;57541;47.408;18.822;2023-04-25T01:39:50;5.45;;;2.80;;
70165;SDS011;57541;47.408;18.822;2023-04-25T01:40:22;5.43;;;3.05;;
70165;SDS011;57541;47.408;18.822;2023-04-25T01:40:55;6.30;;;2.95;;
70165;SDS011;57541;47.408;18.822;2023-04-25T01:41:27;6.38;;;2.70;;
70165;SDS011;57541;47.408;18.822;2023-04-25T01:41:59;5.80;;;2.97;;
70165;SDS011;57541;47.408;18.822;2023-04-25T01:42:32;6.70;;;3.22;;
70165;SDS011;57541;47.408;18.822;2023-04-25T01:43:04;5.75;;;2.80;;
70165;SDS011;57541;47.408;18.822;2023-04-25T01:43:36;8.10;;;2.78;;
70165;SDS011;57541;47.408;18.822;2023-04-25T01:44:08;7.15;;;3.20;;
70165;SDS011;57541;47.408;18.822;2023-04-25T01:44:40;5.50;;;2.75;;
70165;SDS011;57541;47.408;18.822;2023-04-25T01:45:15;6.40;;;2.97;;
70165;SDS011;57541;47.408;18.822;2023-04-25T01:45:46;5.75;;;3.00;;
70165;SDS011;57541;47.408;18.822;2023-04-25T01:46:20;5.25;;;2.70;;
70165;SDS011;57541;47.408;18.822;2023-04-25T01:46:52;5.93;;;2.70;;
70165;SDS011;57541;47.408;18.822;2023-04-25T01:47:23;6.55;;;3.10;;
70165;SDS011;57541;47.408;18.822;2023-04-25T01:47:55;5.95;;;2.90;;
70165;SDS011;57541;47.408;18.822;2023-04-25T01:48:30;5.80;;;2.75;;
70165;SDS011;57541;47.408;18.822;2023-04-25T01:49:02;6.63;;;2.97;;
70165;SDS011;57541;47.408;18.822;2023-04-25T01:49:34;6.57;;;2.80;;
70165;SDS011;57541;47.408;18.822;2023-04-25T01:50:06;5.70;;;2.58;;
70165;SDS011;57541;47.408;18.822;2023-04-25T01:50:39;5.72;;;2.63;;
70165;SDS011;57541;47.408;18.822;2023-04-25T01:51:12;5.85;;;3.00;;
70165;SDS011;57541;47.408;18.822;2023-04-25T01:51:44;5.82;;;3.20;;
70165;SDS011;57541;47.408;18.822;2023-04-25T01:52:16;6.63;;;3.10;;
70165;SDS011;57541;47.408;18.822;2023-04-25T01:52:47;7.15;;;2.50;;
70165;SDS011;57541;47.408;18.822;2023-04-25T01:53:19;5.68;;;2.70;;
70165;SDS011;57541;47.408;18.822;2023-04-25T01:53:51;5.70;;;2.90;;
70165;SDS011;57541;47.408;18.822;2023-04-25T01:54:23;5.57;;;2.75;;
70165;SDS011;57541;47.408;18.822;2023-04-25T01:54:55;6.00;;;2.90;;
70165;SDS011;57541;47.408;18.822;2023-04-25T01:55:28;6.78;;;2.78;;
70165;SDS011;57541;47.408;18.822;2023-04-25T01:56:00;7.18;;;3.20;;
70165;SDS011;57541;47.408;18.822;2023-04-25T01:56:32;5.75;;;2.67;;
70165;SDS011;57541;47.408;18.822;2023-04-25T01:57:04;5.88;;;3.20;;
70165;SDS011;57541;47.408;18.822;2023-04-25T01:57:36;6.22;;;2.67;;
70165;SDS011;57541;47.408;18.822;2023-04-25T01:58:07;5.97;;;2.60;;
70165;SDS011;57541;47.408;18.822;2023-04-25T01:58:40;5.00;;;2.47;;
70165;SDS011;57541;47.408;18.822;2023-04-25T01:59:12;5.90;;;2.78;;
70165;SDS011;57541;47.408;18.822;2023-04-25T01:59:44;5.53;;;2.78;;
70165;SDS011;57541;47.408;18.822;2023-04-25T02:00:16;5.13;;;2.80;;
70165;SDS011;57541;47.408;18.822;2023-04-25T02:00:47;5.50;;;2.58;;
70165;SDS011;57541;47.408;18.822;2023-04-25T02:01:19;5.65;;;2.63;;
70165;SDS011;57541;47.408;18.822;2023-04-25T02:01:51;5.32;;;2.67;;
70165;SDS011;57541;47.408;18.822;2023-04-25T02:02:23;6.45;;;3.17;;
70165;SDS011;57541;47.408;18.822;2023-04-25T02:02:57;6.10;;;2.78;;
70165;SDS011;57541;47.408;18.822;2023-04-25T02:03:30;6.43;;;2.90;;
70165;SDS011;57541;47.408;18.822;2023-04-25T02:04:03;5.32;;;2.63;;
70165;SDS011;57541;47.408;18.822;2023-04-25T02:04:35;5.32;;;2.78;;
70165;SDS011;57541;47.408;18.822;2023-04-25T02:05:07;5.70;;;3.00;;
70165;SDS011;57541;47.408;18.822;2023-04-25T02:05:39;5.43;;;2.90;;
70165;SDS011;57541;47.408;18.822;2023-04-25T02:06:11;5.45;;;2.65;;
70165;SDS011;57541;47.408;18.822;2023-04-25T02:06:43;6.78;;;2.88;;
70165;SDS011;57541;47.408;18.822;2023-04-25T02:07:14;5.10;;;2.72;;
70165;SDS011;57541;47.408;18.822;2023-04-25T02:07:47;6.15;;;2.90;;
70165;SDS011;57541;47.408;18.822;2023-04-25T02:08:19;6.03;;;2.88;;
70165;SDS011;57541;47.408;18.822;2023-04-25T02:08:51;5.68;;;2.88;;
70165;SDS011;57541;47.408;18.822;2023-04-25T02:09:22;5.95;;;3.08;;
70165;SDS011;57541;47.408;18.822;2023-04-25T02:09:54;6.53;;;2.75;;
70165;SDS011;57541;47.408;18.822;2023-04-25T02:10:26;5.20;;;2.83;;
70165;SDS011;57541;47.408;18.822;2023-04-25T02:10:57;7.25;;;3.03;;
70165;SDS011;57541;47.408;18.822;2023-04-25T02:11:29;7.05;;;2.67;;
70165;SDS011;57541;47.408;18.822;2023-04-25T02:12:01;6.68;;;2.70;;
70165;SDS011;57541;47.408;18.822;2023-04-25T02:12:33;5.80;;;2.90;;
70165;SDS011;57541;47.408;18.822;2023-04-25T02:13:04;5.43;;;3.03;;
70165;SDS011;57541;47.408;18.822;2023-04-25T02:13:36;5.95;;;2.92;;
70165;SDS011;57541;47.408;18.822;2023-04-25T02:14:08;5.53;;;2.97;;
70165;SDS011;57541;47.408;18.822;2023-04-25T02:14:40;5.55;;;2.90;;
70165;SDS011;57541;47.408;18.822;2023-04-25T02:15:11;5.70;;;2.80;;
70165;SDS011;57541;47.408;18.822;2023-04-25T02:15:43;6.45;;;3.40;;
70165;SDS011;57541;47.408;18.822;2023-04-25T02:16:15;5.97;;;3.10;;
70165;SDS011;57541;47.408;18.822;2023-04-25T02:16:46;5.38;;;2.90;;
70165;SDS011;57541;47.408;18.822;2023-04-25T02:17:18;6.07;;;2.88;;
70165;SDS011;57541;47.408;18.822;2023-04-25T02:17:50;6.40;;;2.67;;
70165;SDS011;57541;47.408;18.822;2023-04-25T02:18:24;7.07;;;3.28;;
70165;SDS011;57541;47.408;18.822;2023-04-25T02:18:57;6.63;;;3.35;;
70165;SDS011;57541;47.408;18.822;2023-04-25T02:19:29;5.03;;;2.78;;
70165;SDS011;57541;47.408;18.822;2023-04-25T02:20:00;5.72;;;3.20;;
70165;SDS011;57541;47.408;18.822;2023-04-25T02:20:32;6.03;;;2.95;;
70165;SDS011;57541;47.408;18.822;2023-04-25T02:21:04;8.40;;;2.92;;
70165;SDS011;57541;47.408;18.822;2023-04-25T02:21:36;6.70;;;2.67;;
70165;SDS011;57541;47.408;18.822;2023-04-25T02:22:08;5.05;;;2.88;;
70165;SDS011;57541;47.408;18.822;2023-04-25T02:22:39;5.57;;;2.88;;
70165;SDS011;57541;47.408;18.822;2023-04-25T02:23:11;7.00;;;2.78;;
70165;SDS011;57541;47.408;18.822;2023-04-25T02:23:43;5.50;;;2.58;;
70165;SDS011;57541;47.408;18.822;2023-04-25T02:24:17;5.80;;;2.72;;
70165;SDS011;57541;47.408;18.822;2023-04-25T02:24:48;6.15;;;3.35;;
70165;SDS011;57541;47.408;18.822;2023-04-25T02:25:20;6.22;;;2.75;;
70165;SDS011;57541;47.408;18.822;2023-04-25T02:25:52;5.97;;;2.92;;
70165;SDS011;57541;47.408;18.822;2023-04-25T02:26:26;6.88;;;2.60;;
70165;SDS011;57541;47.408;18.822;2023-04-25T02:26:58;6.28;;;2.92;;
70165;SDS011;57541;47.408;18.822;2023-04-25T02:27:30;5.70;;;2.70;;
70165;SDS011;57541;47.408;18.822;2023-04-25T02:28:02;6.82;;;3.30;;
70165;SDS011;57541;47.408;18.822;2023-04-25T02:28:33;5.45;;;2.90;;
70165;SDS011;57541;47.408;18.822;2023-04-25T02:29:05;5.43;;;2.97;;
70165;SDS011;57541;47.408;18.822;2023-04-25T02:29:37;7.15;;;2.83;;
70165;SDS011;57541;47.408;18.822;2023-04-25T02:30:09;7.28;;;3.00;;
70165;SDS011;57541;47.408;18.822;2023-04-25T02:30:41;5.80;;;2.83;;
70165;SDS011;57541;47.408;18.822;2023-04-25T02:31:13;5.72;;;2.97;;
70165;SDS011;57541;47.408;18.822;2023-04-25T02:31:44;5.53;;;2.53;;
70165;SDS011;57541;47.408;18.822;2023-04-25T02:32:16;5.57;;;2.67;;
70165;SDS011;57541;47.408;18.822;2023-04-25T02:32:48;6.40;;;3.00;;
70165;SDS011;57541;47.408;18.822;2023-04-25T02:33:19;6.55;;;3.00;;
70165;SDS011;57541;47.408;18.822;2023-04-25T02:33:52;6.15;;;2.85;;
70165;SDS011;57541;47.408;18.822;2023-04-25T02:34:23;6.00;;;3.30;;
70165;SDS011;57541;47.408;18.822;2023-04-25T02:34:55;6.68;;;2.80;;
70165;SDS011;57541;47.408;18.822;2023-04-25T02:35:29;5.65;;;2.85;;
70165;SDS011;57541;47.408;18.822;2023-04-25T02:36:01;7.18;;;3.03;;
70165;SDS011;57541;47.408;18.822;2023-04-25T02:36:33;5.95;;;2.92;;
70165;SDS011;57541;47.408;18.822;2023-04-25T02:37:06;5.95;;;2.80;;
70165;SDS011;57541;47.408;18.822;2023-04-25T02:37:38;6.10;;;3.20;;
70165;SDS011;57541;47.408;18.822;2023-04-25T02:38:10;6.15;;;2.55;;
70165;SDS011;57541;47.408;18.822;2023-04-25T02:38:42;6.85;;;3.15;;
70165;SDS011;57541;47.408;18.822;2023-04-25T02:39:14;7.80;;;3.00;;
70165;SDS011;57541;47.408;18.822;2023-04-25T02:39:45;5.30;;;2.60;;
70165;SDS011;57541;47.408;18.822;2023-04-25T02:40:17;6.47;;;2.97;;
70165;SDS011;57541;47.408;18.822;2023-04-25T02:40:49;6.72;;;3.03;;
70165;SDS011;57541;47.408;18.822;2023-04-25T02:41:20;6.25;;;2.80;;
70165;SDS011;57541;47.408;18.822;2023-04-25T02:41:52;6.28;;;2.95;;
70165;SDS011;57541;47.408;18.822;2023-04-25T02:42:24;6.32;;;2.70;;
70165;SDS011;57541;47.408;18.822;2023-04-25T02:42:55;6.35;;;2.70;;
70165;SDS011;57541;47.408;18.822;2023-04-25T02:43:27;7.03;;;3.20;;
70165;SDS011;57541;47.408;18.822;2023-04-25T02:43:58;5.93;;;3.20;;
70165;SDS011;57541;47.408;18.822;2023-04-25T02:44:30;6.90;;;3.00;;
70165;SDS011;57541;47.408;18.822;2023-04-25T02:45:02;5.47;;;2.70;;
70165;SDS011;57541;47.408;18.822;2023-04-25T02:45:34;5.60;;;2.50;;
70165;SDS011;57541;47.408;18.822;2023-04-25T02:46:06;5.68;;;2.92;;
70165;SDS011;57541;47.408;18.822;2023-04-25T02:46:39;5.50;;;2.70;;
70165;SDS011;57541;47.408;18.822;2023-04-25T02:47:10;6.57;;;2.78;;
70165;SDS011;57541;47.408;18.822;2023-04-25T02:47:42;11.75;;;3.17;;
70165;SDS011;57541;47.408;18.822;2023-04-25T02:48:14;7.20;;;2.85;;
70165;SDS011;57541;47.408;18.822;2023-04-25T02:48:46;5.07;;;2.60;;
70165;SDS011;57541;47.408;18.822;2023-04-25T02:49:18;5.63;;;2.80;;
70165;SDS011;57541;47.408;18.822;2023-04-25T02:49:49;6.78;;;3.00;;
70165;SDS011;57541;47.408;18.822;2023-04-25T02:50:21;5.57;;;2.67;;
70165;SDS011;57541;47.408;18.822;2023-04-25T02:50:52;5.68;;;2.72;;
70165;SDS011;57541;47.408;18.822;2023-04-25T02:51:24;6.55;;;2.95;;
70165;SDS011;57541;47.408;18.822;2023-04-25T02:51:56;5.10;;;2.50;;
70165;SDS011;57541;47.408;18.822;2023-04-25T02:52:27;6.18;;;2.92;;
70165;SDS011;57541;47.408;18.822;2023-04-25T02:52:59;6.72;;;3.08;;
70165;SDS011;57541;47.408;18.822;2023-04-25T02:53:31;7.88;;;3.10;;
70165;SDS011;57541;47.408;18.822;2023-04-25T02:54:02;5.40;;;2.50;;
70165;SDS011;57541;47.408;18.822;2023-04-25T02:54:34;6.30;;;3.20;;
70165;SDS011;57541;47.408;18.822;2023-04-25T02:55:06;5.47;;;2.55;;
70165;SDS011;57541;47.408;18.822;2023-04-25T02:55:38;5.47;;;3.10;;
70165;SDS011;57541;47.408;18.822;2023-04-25T02:56:10;5.80;;;3.13;;
70165;SDS011;57541;47.408;18.822;2023-04-25T02:56:42;5.05;;;2.60;;
70165;SDS011;57541;47.408;18.822;2023-04-25T02:57:13;9.20;;;2.85;;
70165;SDS011;57541;47.408;18.822;2023-04-25T02:57:45;6.38;;;2.72;;
70165;SDS011;57541;47.408;18.822;2023-04-25T02:58:16;6.00;;;2.90;;
70165;SDS011;57541;47.408;18.822;2023-04-25T02:58:48;6.82;;;2.85;;
70165;SDS011;57541;47.408;18.822;2023-04-25T02:59:20;5.63;;;2.80;;
70165;SDS011;57541;47.408;18.822;2023-04-25T02:59:52;5.45;;;2.45;;
70165;SDS011;57541;47.408;18.822;2023-04-25T03:00:23;5.75;;;2.72;;
70165;SDS011;57541;47.408;18.822;2023-04-25T03:00:55;5.85;;;2.67;;
70165;SDS011;57541;47.408;18.822;2023-04-25T03:01:27;5.68;;;2.53;;
70165;SDS011;57541;47.408;18.822;2023-04-25T03:01:58;7.05;;;2.85;;
70165;SDS011;57541;47.408;18.822;2023-04-25T03:02:30;5.72;;;2.97;;
70165;SDS011;57541;47.408;18.822;2023-04-25T03:03:02;5.68;;;2.85;;
70165;SDS011;57541;47.408;18.822;2023-04-25T03:03:34;6.38;;;2.63;;
70165;SDS011;57541;47.408;18.822;2023-04-25T03:04:06;7.60;;;2.88;;
70165;SDS011;57541;47.408;18.822;2023-04-25T03:04:37;6.97;;;2.83;;
70165;SDS011;57541;47.408;18.822;2023-04-25T03:05:09;5.25;;;2.95;;
70165;SDS011;57541;47.408;18.822;2023-04-25T03:05:41;5.68;;;2.70;;
70165;SDS011;57541;47.408;18.822;2023-04-25T03:06:13;6.30;;;3.10;;
70165;SDS011;57541;47.408;18.822;2023-04-25T03:06:46;6.00;;;3.05;;
70165;SDS011;57541;47.408;18.822;2023-04-25T03:07:18;4.80;;;2.50;;
70165;SDS011;57541;47.408;18.822;2023-04-25T03:07:50;5.50;;;2.88;;
70165;SDS011;57541;47.408;18.822;2023-04-25T03:08:21;6.70;;;3.10;;
70165;SDS011;57541;47.408;18.822;2023-04-25T03:08:54;6.25;;;2.80;;
70165;SDS011;57541;47.408;18.822;2023-04-25T03:09:25;7.13;;;3.10;;
70165;SDS011;57541;47.408;18.822;2023-04-25T03:09:57;5.80;;;2.47;;
70165;SDS011;57541;47.408;18.822;2023-04-25T03:10:28;6.43;;;2.63;;